Lindale, Georgia
Current Conditions -  °F | °C
As of 3:53 AM on Thursday 27 Nov 2014 (Local Time) from KRMG Reporting Station
Scattered Clouds Scattered Clouds  
Wind Chill: 36°   Ceiling: Unl
Heat Index: 41°   Visibility: 10mi
Dew Point: 31°   Wind: 8mph
Humidity: 67%   Direction: 260°W
Pressure: 30.14"   Gusts: NA
Location:  34.19°N, 85.17°W
Report Text: KRMG 270853Z AUTO 26007KT 10SM SCT039 05/M01 A3014 RMK AO2 SLP203 T00501006 53017
Loading
Personal Weather Stations






























Interactive Weather Map New forecast layout! Learn more

10-Day Weather Forecast

Advertisements
Track Severe Weather on mobile